Latest Weather Observations for Mount Magnet Airport

IDW60801

Issued at 9:03 pm WST Monday 18 June 2018 (issued every 10 minutes, with the page automatically refreshed every 10 minutes)

About weather observations | Map of weather stations | Latest weather observations for WA | Other Formats
Station Details ID: 007600 Name: MOUNT MAGNET AERO Lat: -28.12 Lon: 117.84 Height: 407.0 m
Data from the previous 72 hours. | See also: Recent months at Mount Magnet Airport
Date/Time
WST
Temp
°C
App
Temp
°C
Dew
Point
°C
Rel
Hum
%
Delta-T
°C
Wind Press
QNH
hPa
Press
MSL
hPa
Rain since
9am
mm
Dir  Spd
km/h
Gust
km/h
Spd
kts
Gust
kts
18/09:00pm 12.8 12.7 10.7 87 1.1 NNW 2 7 1 4 1022.4 1021.9 11.0
18/08:30pm 12.8 12.9 10.3 85 1.3 CALM 0 0 0 0 1022.8 1022.4 11.0
18/08:00pm 12.7 12.7 9.9 83 1.5 CALM 0 0 0 0 1022.5 1022.0 11.0
18/07:30pm 12.6 12.7 10.1 85 1.3 CALM 0 0 0 0 1022.0 1021.5 11.0
18/07:00pm 12.6 12.7 10.3 86 1.2 CALM 0 0 0 0 1021.5 1021.1 11.0
18/06:30pm 12.7 12.8 10.1 84 1.4 CALM 0 0 0 0 1020.6 1020.2 11.0
18/06:00pm 12.7 12.8 10.2 85 1.3 CALM 0 2 0 1 1021.2 1020.8 11.0
18/05:30pm 12.6 11.3 10.1 85 1.3 SSW 7 9 4 5 1021.1 1020.7 11.0
18/05:00pm 12.7 11.1 10.1 84 1.4 SSW 9 11 5 6 1020.4 1019.9 11.0
18/04:30pm 12.8 9.6 9.8 82 1.6 SSW 17 20 9 11 1020.0 1019.5 11.0
18/04:00pm 13.1 8.9 9.9 81 1.7 SW 22 33 12 18 1020.7 1020.3 11.0
18/03:30pm 13.0 10.0 10.7 86 1.2 SW 17 22 9 12 1019.8 1019.3 11.0
18/03:00pm 12.7 8.8 10.8 88 1.0 SW 22 32 12 17 1020.2 1019.7 11.0
18/02:30pm 13.7 10.1 12.9 95 0.4 WSW 24 30 13 16 1019.3 1018.8 10.4
18/02:00pm 13.8 10.8 12.7 93 0.6 WSW 20 28 11 15 1018.7 1018.3 10.0
18/01:30pm 14.2 10.6 13.2 94 0.6 SW 24 35 13 19 1018.4 1017.9 9.6
18/01:00pm 15.2 13.1 13.6 90 0.9 WSW 17 24 9 13 1018.0 1017.5 8.4
18/12:30pm 15.1 13.6 14.1 94 0.6 W 15 20 8 11 1017.8 1017.3 8.4
18/12:00pm 15.3 13.5 14.5 95 0.5 W 17 24 9 13 1018.7 1018.3 8.2
18/11:30am 15.4 11.9 14.4 94 0.6 NW 26 37 14 20 1019.2 1018.7 6.8
18/11:00am 15.4 11.0 14.1 92 0.7 NW 30 37 16 20 1019.3 1018.8 6.2
18/10:30am 15.7 12.3 14.7 94 0.6 NNW 26 35 14 19 1019.2 1018.7 6.0
18/10:00am 15.6 11.8 14.6 94 0.6 NNW 28 37 15 20 1019.6 1019.1 3.2
18/09:30am 15.5 11.7 14.7 95 0.5 NNW 28 37 15 20 1019.6 1019.1 1.2
18/09:00am 15.5 10.8 14.4 93 0.6 NNW 32 46 17 25 1018.7 1018.3 11.8
18/08:30am 15.5 9.9 14.5 94 0.6 NNW 37 48 20 26 1018.4 1017.9 10.4
18/08:20am 15.2 12.1 14.4 95 0.5 N 24 41 13 22 1018.5 1018.1 10.0
18/08:00am 14.6 13.4 14.0 96 0.3 N 13 17 7 9 1018.3 1017.8 8.4
18/07:30am 14.1 12.7 13.5 96 0.3 N 13 17 7 9 1018.4 1017.9 6.4
18/07:00am 13.9 12.4 13.1 95 0.4 N 13 17 7 9 1018.2 1017.7 4.4
18/06:30am 14.0 12.4 12.9 93 0.6 N 13 17 7 9 1018.0 1017.5 3.4
18/06:00am 14.3 12.7 12.7 90 0.9 NNE 13 15 7 8 1017.5 1017.0 1.0
18/05:30am 14.6 13.2 12.3 86 1.3 N 11 15 6 8 1017.4 1016.9 0.6
18/05:00am 15.3 13.6 11.3 77 2.2 N 11 15 6 8 1017.5 1017.0 0.2
18/04:30am 15.6 13.0 10.8 73 2.6 NNW 15 19 8 10 1017.9 1017.4 0.2
18/04:00am 16.1 12.4 9.5 65 3.5 N 19 22 10 12 1018.1 1017.6 0.2
18/03:30am 16.5 12.7 9.0 61 3.9 N 19 26 10 14 1018.0 1017.5 0.2
18/03:00am 17.8 11.5 7.2 50 5.4 N 30 39 16 21 1018.1 1017.6 0.0
18/02:53am 18.0 12.0 7.1 49 5.6 N 28 37 15 20 1018.2 1017.7 0.0
18/02:30am 17.5 14.3 8.4 55 4.8 N 15 17 8 9 1017.7 1017.2 0.0
18/02:00am 18.5 13.6 4.3 39 6.9 N 19 22 10 12 1017.5 1017.0 0.0
18/01:30am 18.4 13.6 4.9 41 6.6 N 19 24 10 13 1016.9 1016.4 0.0
18/01:00am 18.5 13.5 4.7 40 6.8 NNE 20 28 11 15 1016.7 1016.2 0.0
18/12:30am 18.8 14.0 4.9 40 6.9 NNE 19 24 10 13 1016.8 1016.3 0.0
18/12:00am 19.5 14.6 5.2 39 7.1 NNE 20 28 11 15 1017.2 1016.7 0.0
 
Date/Time
WST
Temp
°C
App
Temp
°C
Dew
Point
°C
Rel
Hum
%
Delta-T
°C
Wind Press
QNH
hPa
Press
MSL
hPa
Rain since
9am
mm
Dir  Spd
km/h
Gust
km/h
Spd
kts
Gust
kts
17/11:30pm 19.6 14.8 4.9 38 7.3 N 19 22 10 12 1017.7 1017.2 0.0
17/11:00pm 20.1 15.3 4.6 36 7.7 N 19 26 10 14 1018.3 1017.8 0.0
17/10:30pm 19.7 15.4 5.4 39 7.2 N 17 22 9 12 1018.3 1017.8 0.0
17/10:00pm 19.7 14.8 4.2 36 7.6 N 19 26 10 14 1018.3 1017.8 0.0
17/09:30pm 19.5 15.8 4.4 37 7.4 NNE 13 15 7 8 1018.3 1017.8 0.0
17/09:00pm 19.8 14.7 4.3 36 7.6 N 20 28 11 15 1018.5 1018.1 0.0
17/08:30pm 19.5 14.5 3.6 35 7.7 N 19 22 10 12 1018.9 1018.5 0.0
17/08:00pm 19.2 15.7 3.4 35 7.6 N 11 15 6 8 1018.6 1018.2 0.0
17/07:30pm 19.4 15.8 3.2 34 7.8 NNE 11 15 6 8 1018.6 1018.2 0.0
17/07:00pm 19.9 16.3 3.2 33 8.0 N 11 13 6 7 1018.8 1018.4 0.0
17/06:30pm 20.7 17.1 3.0 31 8.5 NNE 11 15 6 8 1018.5 1018.1 0.0
17/06:00pm 22.2 18.6 2.8 28 9.4 NNE 11 15 6 8 1018.3 1017.8 0.0
17/05:30pm 22.9 18.8 2.4 26 9.9 NNE 13 17 7 9 1018.0 1017.5 0.0
17/05:00pm 24.3 19.5 2.5 24 10.6 N 17 22 9 12 1018.3 1017.8 0.0
17/04:30pm 25.0 19.6 2.4 23 11.1 N 20 26 11 14 1018.4 1017.9 0.0
17/04:00pm 25.2 19.7 2.0 22 11.3 N 20 28 11 15 1018.3 1017.8 0.0
17/03:30pm 24.8 19.2 1.0 21 11.4 N 20 26 11 14 1018.7 1018.3 0.0
17/03:00pm 25.7 19.2 0.4 19 12.0 NNE 24 30 13 16 1018.7 1018.3 0.0
17/02:30pm 25.3 18.1 0.8 20 11.7 N 28 35 15 19 1018.9 1018.5 0.0
17/02:00pm 25.2 17.9 0.0 19 11.8 N 28 39 15 21 1019.1 1018.6 0.0
17/01:30pm 24.8 17.4 -0.4 19 11.7 N 28 37 15 20 1019.6 1019.1 0.0
17/01:00pm 24.3 16.1 -0.8 19 11.5 N 32 41 17 22 1020.0 1019.5 0.0
17/12:30pm 23.7 15.6 -0.6 20 11.2 N 32 44 17 24 1020.6 1020.2 0.0
17/12:00pm 23.0 16.0 -0.5 21 10.7 NNE 26 35 14 19 1021.1 1020.7 0.0
17/11:30am 22.0 14.2 -0.7 22 10.3 N 30 41 16 22 1021.7 1021.2 0.0
17/11:00am 20.8 13.8 -0.5 24 9.6 NNE 26 35 14 19 1022.0 1021.5 0.0
17/10:30am 18.8 11.0 -0.6 27 8.6 NNE 30 41 16 22 1022.4 1021.9 0.0
17/10:00am 17.7 11.1 -0.1 30 7.8 NNE 24 33 13 18 1022.7 1022.3 0.0
17/09:30am 15.9 8.9 -0.3 33 7.0 NNE 26 35 14 19 1022.8 1022.4 0.0
17/09:00am 14.3 8.2 0.2 38 6.1 NNE 22 32 12 17 1022.7 1022.3 0.0
17/08:30am 13.3 7.2 0.3 41 5.6 NE 22 30 12 16 1022.9 1022.5 0.0
17/08:00am 12.3 6.2 0.4 44 5.0 NE 22 32 12 17 1022.9 1022.5 0.0
17/07:30am 11.2 5.5 0.6 48 4.5 NE 20 28 11 15 1022.8 1022.4 0.0
17/07:00am 10.4 4.9 0.4 50 4.2 NE 19 24 10 13 1022.6 1022.1 0.0
17/06:30am 10.4 4.9 0.7 51 4.1 NE 19 24 10 13 1022.5 1022.0 0.0
17/06:00am 10.3 5.2 0.6 51 4.0 NE 17 22 9 12 1022.3 1021.8 0.0
17/05:30am 9.5 4.7 0.4 53 3.8 NE 15 17 8 9 1022.5 1022.0 0.0
17/05:00am 9.2 5.2 0.4 54 3.6 NE 11 13 6 7 1022.5 1022.0 0.0
17/04:30am 8.6 5.0 0.3 56 3.4 NE 9 11 5 6 1022.5 1022.0 0.0
17/04:00am 8.4 5.1 0.4 57 3.3 ENE 7 9 4 5 1022.7 1022.3 0.0
17/03:30am 9.4 5.8 0.3 53 3.8 ENE 9 11 5 6 1023.1 1022.7 0.0
17/03:00am 9.3 5.3 0.2 53 3.7 ENE 11 11 6 6 1023.2 1022.8 0.0
17/02:30am 10.7 6.7 0.4 49 4.3 NE 11 15 6 8 1023.2 1022.8 0.0
17/02:00am 11.0 6.6 0.4 48 4.4 NE 13 17 7 9 1023.1 1022.7 0.0
17/01:30am 11.4 6.6 0.5 47 4.6 NNE 15 17 8 9 1023.2 1022.8 0.0
17/01:00am 11.5 7.1 0.6 47 4.6 NNE 13 17 7 9 1023.4 1023.0 0.0
17/12:30am 11.8 7.8 0.6 46 4.8 NNE 11 15 6 8 1023.6 1023.2 0.0
17/12:00am 13.1 7.9 0.2 41 5.5 NE 17 20 9 11 1023.7 1023.3 0.0
 
Date/Time
WST
Temp
°C
App
Temp
°C
Dew
Point
°C
Rel
Hum
%
Delta-T
°C
Wind Press
QNH
hPa
Press
MSL
hPa
Rain since
9am
mm
Dir  Spd
km/h
Gust
km/h
Spd
kts
Gust
kts
16/11:30pm 13.5 8.3 0.2 40 5.7 ENE 17 24 9 13 1023.8 1023.4 0.0
16/11:00pm 13.4 8.6 0.1 40 5.6 NE 15 19 8 10 1023.9 1023.5 0.0
16/10:30pm 13.5 8.7 0.5 41 5.6 ENE 15 20 8 11 1024.1 1023.7 0.0
16/10:00pm 13.3 9.0 0.7 42 5.4 ENE 13 15 7 8 1024.1 1023.7 0.0
16/09:30pm 14.3 9.9 0.6 39 6.0 ENE 13 19 7 10 1024.4 1023.9 0.0
16/09:00pm 13.7 9.3 0.4 40 5.7 ENE 13 17 7 9 1024.4 1023.9 0.0
16/08:30pm 13.0 8.9 -0.3 40 5.6 E 11 13 6 7 1024.3 1023.8 0.0
16/08:00pm 13.7 9.5 -0.7 37 6.0 E 11 15 6 8 1024.3 1023.8 0.0
16/07:30pm 13.9 10.0 -1.3 35 6.3 ENE 9 9 5 5 1024.1 1023.7 0.0
16/07:00pm 14.6 10.4 -1.1 34 6.6 E 11 13 6 7 1023.8 1023.4 0.0
16/06:30pm 16.2 12.3 -1.8 29 7.6 E 9 9 5 5 1023.7 1023.3 0.0
16/06:00pm 17.8 13.2 -1.4 27 8.2 ENE 13 15 7 8 1023.4 1023.0 0.0
16/05:30pm 18.8 14.1 -1.6 25 8.8 ENE 13 19 7 10 1023.2 1022.8 0.0
16/05:00pm 20.0 14.6 -1.7 23 9.4 ENE 17 26 9 14 1023.2 1022.8 0.0
16/04:30pm 20.6 14.8 -1.2 23 9.7 ENE 19 28 10 15 1023.3 1022.9 0.0
16/04:00pm 21.0 15.1 -0.9 23 9.8 ENE 20 26 11 14 1023.3 1022.9 0.0
16/03:30pm 20.9 15.0 -1.0 23 9.8 ENE 20 30 11 16 1023.4 1023.0 0.0
16/03:00pm 20.7 14.9 0.0 25 9.4 ENE 20 28 11 15 1023.6 1023.2 0.0
16/02:30pm 20.1 14.7 1.0 28 8.8 ENE 19 26 10 14 1024.0 1023.6 0.0
16/02:00pm 20.1 13.6 0.0 26 9.0 NE 24 28 13 15 1024.1 1023.7 0.0
16/01:30pm 19.9 14.2 0.4 27 8.9 NE 20 26 11 14 1024.6 1024.1 0.0
16/01:00pm 19.4 13.0 0.9 29 8.4 NE 24 33 13 18 1024.9 1024.5 0.0
16/12:30pm 19.3 13.0 1.3 30 8.3 NE 24 32 13 17 1025.2 1024.8 0.0
16/12:00pm 18.6 11.9 1.6 32 7.8 NE 26 37 14 20 1025.5 1025.1 0.0
16/11:30am 17.8 10.9 2.5 36 7.1 NE 28 37 15 20 1026.2 1025.8 0.0
16/11:00am 16.8 9.6 2.8 39 6.5 NE 30 39 16 21 1026.6 1026.2 0.0
16/10:30am 16.2 9.0 2.9 41 6.2 NE 30 43 16 23 1027.2 1026.8 0.0
16/10:00am 15.4 9.8 3.2 44 5.6 NE 22 32 12 17 1027.5 1027.1 0.0
16/09:30am 14.3 8.3 3.2 47 5.1 NE 24 35 13 19 1027.6 1027.2 0.0
16/09:00am 12.4 7.1 3.1 53 4.2 NE 20 26 11 14 1027.6 1027.2 0.0
16/08:30am 11.1 6.0 2.9 57 3.6 NE 19 26 10 14 1027.6 1027.2 0.0
16/08:00am 10.2 6.2 2.8 60 3.2 NE 13 19 7 10 1027.2 1026.8 0.0
16/07:30am 9.2 5.1 2.5 63 2.9 NE 13 17 7 9 1026.7 1026.3 0.0
16/07:00am 8.7 3.9 2.5 65 2.7 NE 17 20 9 11 1026.6 1026.2 0.0
16/06:30am 8.3 4.2 2.1 65 2.6 NE 13 17 7 9 1026.3 1025.9 0.0
16/06:00am 8.3 4.2 2.1 65 2.6 NE 13 17 7 9 1026.0 1025.6 0.0
16/05:30am 8.3 4.1 1.9 64 2.7 NE 13 15 7 8 1026.0 1025.6 0.0
16/05:00am 8.7 4.5 1.8 62 2.9 ENE 13 17 7 9 1025.9 1025.5 0.0
16/04:30am 8.5 4.7 1.6 62 2.9 ENE 11 15 6 8 1026.0 1025.6 0.0
16/04:00am 8.8 4.6 1.7 61 3.0 NE 13 17 7 9 1026.1 1025.7 0.0
16/03:30am 8.0 4.1 1.4 63 2.8 ENE 11 13 6 7 1026.0 1025.6 0.0
16/03:00am 8.7 5.2 1.4 60 3.0 NE 9 11 5 6 1026.0 1025.6 0.0
16/02:30am 9.8 6.3 1.5 56 3.5 NE 9 15 5 8 1026.0 1025.6 0.0
16/02:00am 10.8 6.6 1.4 52 4.0 ENE 13 17 7 9 1025.9 1025.5 0.0
16/01:30am 10.8 6.9 1.4 52 4.0 ENE 11 15 6 8 1025.9 1025.5 0.0
16/01:00am 10.9 7.0 1.4 52 4.1 ENE 11 15 6 8 1026.0 1025.6 0.0
16/12:30am 10.7 6.8 1.3 52 4.0 ENE 11 11 6 6 1026.2 1025.8 0.0
16/12:00am 11.4 7.5 1.1 49 4.4 ENE 11 17 6 9 1026.2 1025.8 0.0
 
Date/Time
WST
Temp
°C
App
Temp
°C
Dew
Point
°C
Rel
Hum
%
Delta-T
°C
Wind Press
QNH
hPa
Press
MSL
hPa
Rain since
9am
mm
Dir  Spd
km/h
Gust
km/h
Spd
kts
Gust
kts
15/11:30pm 9.9 6.0 1.3 55 3.6 ENE 11 13 6 7 1026.3 1025.9 0.0
15/11:00pm 9.5 5.9 0.9 55 3.6 E 9 11 5 6 1026.5 1026.1 0.0
15/10:30pm 10.0 6.5 1.1 54 3.8 E 9 11 5 6 1026.4 1026.0 0.0
15/10:00pm 10.8 7.3 1.1 51 4.1 ENE 9 11 5 6 1026.6 1026.2 0.0
15/09:30pm 11.7 7.4 0.8 47 4.7 ENE 13 15 7 8 1026.6 1026.2 0.0

Other Formats:

Comma delimited format used in spreadsheet applications
http://www.bom.gov.au/fwo/IDW60801/IDW60801.94429.axf

JavaScript Object Notation format (JSON) in row-major order
http://www.bom.gov.au/fwo/IDW60801/IDW60801.94429.json